Time;durP1;ratioP1;P1;durP2;ratioP2;P2;SDS_P1;SDS_P2;PMS_P1;PMS_P2;Temp;Humidity;BMP_temperature;BMP_pressure;BME280_temperature;BME280_humidity;BME280_pressure;Samples;Min_cycle;Max_cycle;Signal;HPM_P1;HPM_P2
2021/04/11 00:00:08;;;;;;;22.87;18.23;;;4.90;99.90;;;;;;5081774;28;20569;-80
2021/04/11 00:02:34;;;;;;;21.83;17.30;;;5.00;99.90;;;;;;5081057;28;20572;-79
2021/04/11 00:05:01;;;;;;;20.13;16.50;;;4.80;99.90;;;;;;5080380;28;20252;-79
2021/04/11 00:07:28;;;;;;;20.83;15.87;;;4.90;99.90;;;;;;5085074;28;20211;-79
2021/04/11 00:09:54;;;;;;;17.40;15.13;;;4.90;99.90;;;;;;5078010;28;20298;-80
2021/04/11 00:12:21;;;;;;;18.67;15.70;;;4.70;99.90;;;;;;5083743;28;20203;-81
2021/04/11 00:14:47;;;;;;;18.20;15.00;;;4.70;99.90;;;;;;5080804;28;20202;-79
2021/04/11 00:17:13;;;;;;;18.37;14.10;;;4.70;99.90;;;;;;5084715;28;20213;-78
2021/04/11 00:19:40;;;;;;;18.33;14.77;;;4.70;99.90;;;;;;5080882;28;20206;-80
2021/04/11 00:22:07;;;;;;;18.50;14.63;;;4.70;99.90;;;;;;5082047;28;20327;-80
2021/04/11 00:24:34;;;;;;;20.53;15.83;;;4.70;99.90;;;;;;5084483;28;20206;-80
2021/04/11 00:27:00;;;;;;;22.33;18.03;;;4.60;99.90;;;;;;5082842;28;20633;-81
2021/04/11 00:29:26;;;;;;;21.93;17.23;;;4.70;99.90;;;;;;5082485;28;20195;-81
2021/04/11 00:31:53;;;;;;;20.47;16.53;;;4.80;99.90;;;;;;5082478;28;20215;-79
2021/04/11 00:34:19;;;;;;;22.77;17.47;;;4.80;99.90;;;;;;5079004;28;20209;-81
2021/04/11 00:36:45;;;;;;;28.20;21.63;;;4.70;99.90;;;;;;5083181;28;20710;-80
2021/04/11 00:39:12;;;;;;;30.33;23.20;;;4.60;99.90;;;;;;5084267;28;20253;-79
2021/04/11 00:41:42;;;;;;;28.33;21.30;;;4.60;99.90;;;;;;5082556;28;20221;-79
2021/04/11 00:44:09;;;;;;;27.37;20.73;;;4.50;99.90;;;;;;5080404;28;20198;-81
2021/04/11 00:46:44;;;;;;;24.80;19.33;;;4.50;99.90;;;;;;5082728;28;20206;-79
2021/04/11 00:49:16;;;;;;;19.17;15.67;;;4.40;99.90;;;;;;5079542;28;20191;-79
2021/04/11 00:51:43;;;;;;;17.50;14.40;;;4.40;99.90;;;;;;5084860;28;20224;-79
2021/04/11 00:54:10;;;;;;;18.33;14.17;;;4.30;99.90;;;;;;5082369;28;20198;-79
2021/04/11 00:56:38;;;;;;;15.37;12.97;;;4.30;99.90;;;;;;5084012;28;20198;-82
2021/04/11 00:59:06;;;;;;;16.27;13.53;;;4.30;99.90;;;;;;5080779;28;20304;-83
2021/04/11 01:01:33;;;;;;;13.63;11.97;;;4.30;99.90;;;;;;5081352;28;20233;-81
2021/04/11 01:04:00;;;;;;;14.23;10.90;;;4.20;99.90;;;;;;5078124;28;20199;-81
2021/04/11 01:06:29;;;;;;;14.53;11.53;;;4.30;99.90;;;;;;5082831;28;20202;-80
2021/04/11 01:08:56;;;;;;;16.53;12.90;;;4.20;99.90;;;;;;5080260;28;20202;-81
2021/04/11 01:11:26;;;;;;;17.20;13.27;;;4.20;99.90;;;;;;5082168;28;20210;-82
2021/04/11 01:13:55;;;;;;;17.20;13.57;;;4.20;99.90;;;;;;5083498;28;20573;-79
2021/04/11 01:16:23;;;;;;;15.97;13.53;;;4.20;99.90;;;;;;5081003;28;20210;-79
2021/04/11 01:18:50;;;;;;;15.53;12.87;;;4.10;99.90;;;;;;5081751;28;20230;-79
2021/04/11 01:21:27;;;;;;;14.10;12.20;;;4.20;99.90;;;;;;5088501;28;20222;-78
2021/04/11 01:24:03;;;;;;;15.97;12.23;;;4.20;99.90;;;;;;5085958;28;20206;-78
2021/04/11 01:26:32;;;;;;;14.37;11.80;;;4.20;99.90;;;;;;5084733;28;20194;-78
2021/04/11 01:28:59;;;;;;;12.87;11.50;;;4.20;99.90;;;;;;5083218;28;20204;-79
2021/04/11 01:31:29;;;;;;;14.13;11.33;;;4.10;99.90;;;;;;5082314;28;20227;-78
2021/04/11 01:33:56;;;;;;;11.87;10.07;;;4.00;99.90;;;;;;5083164;28;20563;-79
2021/04/11 01:36:25;;;;;;;11.07;9.93;;;4.10;99.90;;;;;;5084846;28;20347;-79
2021/04/11 01:38:52;;;;;;;11.70;9.90;;;4.10;99.90;;;;;;5081554;28;20211;-79
2021/04/11 01:41:22;;;;;;;13.80;10.80;;;4.10;99.90;;;;;;5084738;28;20728;-79
2021/04/11 01:43:51;;;;;;;13.93;11.33;;;4.10;99.90;;;;;;5081558;28;20258;-79
2021/04/11 01:46:19;;;;;;;12.80;11.07;;;4.10;99.90;;;;;;5080129;28;20211;-80
2021/04/11 01:48:48;;;;;;;13.80;10.83;;;4.10;99.90;;;;;;5081016;28;20195;-80
2021/04/11 01:51:17;;;;;;;12.00;10.73;;;4.10;99.90;;;;;;5080453;28;20549;-80
2021/04/11 01:53:44;;;;;;;11.63;9.87;;;4.20;99.90;;;;;;5082858;28;20205;-79
2021/04/11 01:56:13;;;;;;;11.67;10.20;;;4.00;99.90;;;;;;5081348;28;20206;-80
2021/04/11 01:58:41;;;;;;;12.63;10.70;;;4.10;99.90;;;;;;5081195;28;20191;-80
2021/04/11 02:01:15;;;;;;;9.77;8.77;;;4.20;99.90;;;;;;5080496;28;20205;-80
2021/04/11 02:03:41;;;;;;;12.00;9.30;;;4.20;99.90;;;;;;5080427;28;20199;-79
2021/04/11 02:06:12;;;;;;;14.37;11.50;;;4.20;99.90;;;;;;5081013;28;20203;-81
2021/04/11 02:08:40;;;;;;;15.70;11.63;;;4.10;99.90;;;;;;5080280;28;20198;-81
2021/04/11 02:11:08;;;;;;;17.90;14.13;;;4.10;99.90;;;;;;5081182;28;20199;-79
2021/04/11 02:13:36;;;;;;;20.20;15.23;;;4.10;99.90;;;;;;5084628;28;20270;-79
2021/04/11 02:16:05;;;;;;;22.20;16.37;;;4.10;99.90;;;;;;5083708;28;20206;-80
2021/04/11 02:18:34;;;;;;;24.40;17.60;;;4.10;99.90;;;;;;5082219;28;20201;-80
2021/04/11 02:21:02;;;;;;;22.40;16.77;;;4.10;99.90;;;;;;5083805;28;20209;-80
2021/04/11 02:23:30;;;;;;;23.40;17.43;;;4.10;99.90;;;;;;5085471;28;20217;-80
2021/04/11 02:26:00;;;;;;;20.87;16.50;;;4.10;99.90;;;;;;5085456;28;20279;-80
2021/04/11 02:28:29;;;;;;;22.03;16.40;;;4.20;99.90;;;;;;5083339;28;20206;-79
2021/04/11 02:31:16;;;;;;;24.77;18.60;;;4.10;99.90;;;;;;5081302;28;20263;-79
2021/04/11 02:33:51;;;;;;;28.10;19.63;;;4.10;99.90;;;;;;5086467;28;20210;-79
2021/04/11 02:36:20;;;;;;;29.57;21.47;;;4.20;99.90;;;;;;5082724;28;20198;-79
2021/04/11 02:38:49;;;;;;;29.57;22.07;;;4.20;99.90;;;;;;5083275;28;20202;-79
2021/04/11 02:41:17;;;;;;;28.33;22.00;;;4.20;99.90;;;;;;5083606;28;20216;-80
2021/04/11 02:43:43;;;;;;;33.40;24.90;;;4.10;99.90;;;;;;5086774;28;20266;-79
2021/04/11 02:46:12;;;;;;;34.97;24.97;;;4.20;99.90;;;;;;5084686;28;20210;-79
2021/04/11 02:48:39;;;;;;;32.00;24.17;;;4.10;99.90;;;;;;5087313;28;20209;-80
2021/04/11 02:51:06;;;;;;;29.20;21.57;;;4.10;99.90;;;;;;5082604;28;20721;-80
2021/04/11 02:53:35;;;;;;;26.23;19.50;;;4.10;99.90;;;;;;5081758;28;20191;-79
2021/04/11 02:56:03;;;;;;;23.53;18.47;;;4.10;99.90;;;;;;5080718;28;20198;-78
2021/04/11 02:58:29;;;;;;;19.47;15.63;;;4.10;99.90;;;;;;5087464;28;20221;-80
2021/04/11 03:01:03;;;;;;;14.27;12.77;;;4.00;99.90;;;;;;5082343;28;20231;-81
2021/04/11 03:03:29;;;;;;;13.23;11.83;;;3.90;99.90;;;;;;5077485;28;20216;-81
2021/04/11 03:05:58;;;;;;;11.00;9.67;;;3.90;99.90;;;;;;5082690;28;20641;-81
2021/04/11 03:08:30;;;;;;;10.87;9.53;;;3.90;99.90;;;;;;5082170;28;20206;-79
2021/04/11 03:11:10;;;;;;;10.63;9.53;;;3.80;99.90;;;;;;5080134;28;20289;-80
2021/04/11 03:13:38;;;;;;;11.73;9.37;;;3.80;99.90;;;;;;5082365;28;20213;-81
2021/04/11 03:16:05;;;;;;;11.83;9.87;;;3.80;99.90;;;;;;5083085;28;20202;-80
2021/04/11 03:18:31;;;;;;;10.87;9.57;;;3.80;99.90;;;;;;5083525;28;20657;-78
2021/04/11 03:20:58;;;;;;;12.33;9.93;;;3.80;99.90;;;;;;5083539;28;20206;-79
2021/04/11 03:23:26;;;;;;;13.73;11.30;;;3.80;99.90;;;;;;5082426;28;20241;-79
2021/04/11 03:26:00;;;;;;;13.90;11.57;;;3.80;99.90;;;;;;5083770;28;20205;-79
2021/04/11 03:28:31;;;;;;;17.57;14.40;;;3.90;99.90;;;;;;5082548;28;20208;-79
2021/04/11 03:31:03;;;;;;;19.23;15.93;;;3.90;99.90;;;;;;5083712;28;20202;-78
2021/04/11 03:33:34;;;;;;;19.67;16.03;;;3.90;99.90;;;;;;5081764;28;20209;-78
2021/04/11 03:36:02;;;;;;;20.87;15.87;;;4.10;99.90;;;;;;5081556;28;20199;-78
2021/04/11 03:38:32;;;;;;;18.00;14.90;;;3.90;99.90;;;;;;5084865;28;20202;-79
2021/04/11 03:40:59;;;;;;;18.70;15.37;;;3.90;99.90;;;;;;5085383;28;20194;-78
2021/04/11 03:43:29;;;;;;;17.17;14.43;;;3.80;99.90;;;;;;5084876;28;20894;-80
2021/04/11 03:45:59;;;;;;;16.60;14.20;;;3.90;99.90;;;;;;5085094;28;20194;-79
2021/04/11 03:48:31;;;;;;;15.83;14.13;;;4.00;99.90;;;;;;5080305;28;20251;-78
2021/04/11 03:51:02;;;;;;;14.90;13.20;;;3.80;99.90;;;;;;5081778;28;20195;-79
2021/04/11 03:53:38;;;;;;;15.13;13.17;;;4.00;99.90;;;;;;5080510;28;20207;-79
2021/04/11 03:56:09;;;;;;;15.30;12.90;;;3.90;99.90;;;;;;5082180;28;20205;-78
2021/04/11 03:58:40;;;;;;;14.53;12.43;;;3.90;99.90;;;;;;5082806;28;20202;-79
2021/04/11 04:01:09;;;;;;;14.90;12.53;;;3.90;99.90;;;;;;5083232;28;20669;-77
2021/04/11 04:03:38;;;;;;;16.50;13.27;;;4.00;99.90;;;;;;5077208;28;20222;-77
2021/04/11 04:06:11;;;;;;;17.20;13.37;;;3.90;99.90;;;;;;5081015;28;20209;-76
2021/04/11 04:08:38;;;;;;;17.80;13.93;;;3.90;99.90;;;;;;5079789;28;20207;-77
2021/04/11 04:11:15;;;;;;;20.00;16.00;;;3.90;99.90;;;;;;5080899;28;20203;-77
2021/04/11 04:13:51;;;;;;;20.60;14.97;;;3.90;99.90;;;;;;5079195;28;20213;-79
2021/04/11 04:16:22;;;;;;;20.23;15.67;;;3.90;99.90;;;;;;5079210;28;20201;-76
2021/04/11 04:19:21;;;;;;;19.03;15.67;;;3.80;99.90;;;;;;5077864;28;20207;-80
2021/04/11 04:22:04;;;;;;;18.40;14.70;;;4.00;99.90;;;;;;5078427;28;20619;-76
2021/04/11 04:24:48;;;;;;;17.10;14.17;;;4.00;99.90;;;;;;5078649;28;20201;-78
2021/04/11 04:27:34;;;;;;;17.07;15.23;;;4.00;99.90;;;;;;5078941;28;20298;-77
2021/04/11 04:30:11;;;;;;;13.43;12.00;;;4.00;99.90;;;;;;5078778;28;20294;-76
2021/04/11 04:33:10;;;;;;;13.60;11.33;;;4.00;99.90;;;;;;5078143;28;20213;-78
2021/04/11 04:35:40;;;;;;;11.90;10.70;;;4.00;99.90;;;;;;5078360;28;20559;-77
2021/04/11 04:38:18;;;;;;;12.00;10.53;;;3.90;99.90;;;;;;5077459;28;20215;-77
2021/04/11 04:40:57;;;;;;;11.53;10.33;;;3.90;99.90;;;;;;5077667;28;20293;-77
2021/04/11 04:43:31;;;;;;;11.70;10.50;;;3.80;99.90;;;;;;5078849;28;20214;-77
2021/04/11 04:46:06;;;;;;;11.73;10.53;;;3.90;99.90;;;;;;5078870;28;20204;-77
2021/04/11 04:48:37;;;;;;;10.83;9.67;;;3.90;99.90;;;;;;5079592;28;20550;-77
2021/04/11 04:51:06;;;;;;;10.90;9.80;;;3.80;99.90;;;;;;5079083;28;20272;-79
2021/04/11 04:53:39;;;;;;;9.73;8.57;;;3.80;99.90;;;;;;5082915;28;20252;-76
2021/04/11 04:56:10;;;;;;;11.03;8.47;;;3.80;99.90;;;;;;5082850;28;20200;-78
2021/04/11 04:58:41;;;;;;;10.73;8.10;;;3.70;99.90;;;;;;5081248;28;20205;-77
2021/04/11 05:01:14;;;;;;;9.00;7.17;;;3.80;99.90;;;;;;5081543;28;20198;-77
2021/04/11 05:03:45;;;;;;;7.60;6.50;;;3.80;99.90;;;;;;5080332;28;20219;-79
2021/04/11 05:06:16;;;;;;;6.77;5.80;;;3.80;99.90;;;;;;5083553;28;20206;-78
2021/04/11 05:08:49;;;;;;;9.30;7.03;;;3.80;99.90;;;;;;5085262;28;20210;-79
2021/04/11 05:11:23;;;;;;;8.10;7.30;;;3.70;99.90;;;;;;5084611;28;20681;-79
2021/04/11 05:13:54;;;;;;;8.53;7.53;;;3.70;99.90;;;;;;5084962;28;20199;-77
2021/04/11 05:16:25;;;;;;;8.57;7.67;;;3.70;99.90;;;;;;5085635;28;20200;-76
2021/04/11 05:18:58;;;;;;;9.07;7.90;;;3.70;99.90;;;;;;5083517;28;20201;-77
2021/04/11 05:21:28;;;;;;;10.03;8.70;;;3.80;99.90;;;;;;5083458;28;20205;-77
2021/04/11 05:24:01;;;;;;;9.93;8.73;;;3.80;99.90;;;;;;5084125;28;20587;-80
2021/04/11 05:26:37;;;;;;;11.13;9.13;;;3.80;99.90;;;;;;5088577;28;20202;-77
2021/04/11 05:29:13;;;;;;;10.33;7.77;;;3.80;99.90;;;;;;5086233;28;20217;-78
2021/04/11 05:31:42;;;;;;;8.23;7.40;;;3.80;99.90;;;;;;5085404;28;20198;-78
2021/04/11 05:34:13;;;;;;;7.40;6.53;;;3.70;99.90;;;;;;5085026;28;20210;-78
2021/04/11 05:36:49;;;;;;;7.90;7.10;;;3.80;99.90;;;;;;5084259;28;20206;-78
2021/04/11 05:39:26;;;;;;;8.00;6.33;;;3.90;99.90;;;;;;5085171;28;20289;-80
2021/04/11 05:42:00;;;;;;;8.40;6.70;;;3.90;99.90;;;;;;5084165;28;20218;-78
2021/04/11 05:44:32;;;;;;;9.03;7.97;;;3.90;99.90;;;;;;5082995;28;20198;-79
2021/04/11 05:47:05;;;;;;;9.70;8.47;;;3.90;99.90;;;;;;5085267;28;20281;-78
2021/04/11 05:49:35;;;;;;;9.77;8.43;;;3.90;99.90;;;;;;5082790;28;20217;-78
2021/04/11 05:52:07;;;;;;;11.03;8.70;;;3.90;99.90;;;;;;5082779;28;20217;-77
2021/04/11 05:54:37;;;;;;;11.10;8.67;;;4.00;99.90;;;;;;5080957;28;20248;-77
2021/04/11 05:57:07;;;;;;;11.50;9.43;;;4.00;99.90;;;;;;5080365;28;20210;-76
2021/04/11 05:59:38;;;;;;;10.30;9.17;;;3.90;99.90;;;;;;5081936;28;20642;-76
2021/04/11 06:02:06;;;;;;;10.47;9.47;;;3.90;99.90;;;;;;5080530;28;20219;-77
2021/04/11 06:04:38;;;;;;;13.30;9.70;;;3.90;99.90;;;;;;5079704;28;20206;-77
2021/04/11 06:07:09;;;;;;;11.00;9.77;;;3.80;99.90;;;;;;5080163;28;21568;-77
2021/04/11 06:09:40;;;;;;;11.43;9.73;;;3.90;99.90;;;;;;5080567;28;20202;-76
2021/04/11 06:12:12;;;;;;;11.33;10.13;;;3.90;99.90;;;;;;5081693;28;20524;-78
2021/04/11 06:14:47;;;;;;;10.80;9.70;;;3.90;99.90;;;;;;5081752;28;20191;-77
2021/04/11 06:17:14;;;;;;;11.83;9.93;;;4.00;99.90;;;;;;5079676;28;20221;-78
2021/04/11 06:19:44;;;;;;;11.53;10.33;;;3.90;99.90;;;;;;5080277;28;20205;-77
2021/04/11 06:22:18;;;;;;;13.40;9.93;;;3.90;99.90;;;;;;5081416;28;20226;-78
2021/04/11 06:24:49;;;;;;;11.20;10.03;;;4.00;99.90;;;;;;5082265;28;20261;-77
2021/04/11 06:27:49;;;;;;;11.80;9.67;;;4.00;99.90;;;;;;5082621;28;20203;-77
2021/04/11 06:30:18;;;;;;;10.90;9.43;;;4.00;99.90;;;;;;5082815;28;20194;-77
2021/04/11 06:32:50;;;;;;;11.60;9.97;;;4.00;99.90;;;;;;5082711;28;20226;-76
2021/04/11 06:35:22;;;;;;;10.13;9.07;;;4.00;99.90;;;;;;5084212;28;20217;-78
2021/04/11 06:37:54;;;;;;;11.17;9.73;;;4.10;99.90;;;;;;5082776;28;20289;-77
2021/04/11 06:40:35;;;;;;;11.03;9.50;;;4.20;99.90;;;;;;5081223;28;20204;-75
2021/04/11 06:43:28;;;;;;;10.43;9.20;;;4.20;99.90;;;;;;5079864;28;20236;-76
2021/04/11 06:46:00;;;;;;;12.00;9.17;;;4.20;99.90;;;;;;5079450;28;20228;-77
2021/04/11 06:48:43;;;;;;;9.73;8.33;;;4.20;99.90;;;;;;5083853;28;20198;-76
2021/04/11 06:51:27;;;;;;;9.47;8.57;;;4.30;99.90;;;;;;5078763;28;20206;-78
2021/04/11 06:54:16;;;;;;;10.17;8.80;;;4.30;99.90;;;;;;5079731;28;20201;-77
2021/04/11 06:57:15;;;;;;;10.27;9.27;;;4.30;99.90;;;;;;5079750;28;20264;-78
2021/04/11 07:00:06;;;;;;;10.10;9.10;;;4.40;99.90;;;;;;5080518;28;20192;-80
2021/04/11 07:03:09;;;;;;;13.63;11.17;;;4.50;99.90;;;;;;5079612;28;20267;-77
2021/04/11 07:06:06;;;;;;;10.80;9.70;;;4.50;99.90;;;;;;5078554;28;20649;-77
2021/04/11 07:09:10;;;;;;;10.97;9.50;;;4.50;99.90;;;;;;5042293;28;20202;-77
2021/04/11 07:12:02;;;;;;;11.63;10.43;;;4.50;99.90;;;;;;5079771;28;20301;-77
2021/04/11 07:15:02;;;;;;;11.47;10.33;;;4.60;99.90;;;;;;5080260;28;20210;-77
2021/04/11 07:17:56;;;;;;;11.47;10.37;;;4.40;99.90;;;;;;5078597;28;20194;-77
2021/04/11 07:20:36;;;;;;;12.27;11.07;;;4.60;99.90;;;;;;5080075;28;20236;-76
2021/04/11 07:23:29;;;;;;;10.47;9.37;;;4.60;99.90;;;;;;5079630;28;20234;-76
2021/04/11 07:26:28;;;;;;;9.67;8.77;;;4.60;99.90;;;;;;5078202;28;20202;-78
2021/04/11 07:29:09;;;;;;;10.90;8.40;;;4.60;99.90;;;;;;5079686;28;20203;-76
2021/04/11 07:31:47;;;;;;;9.10;8.20;;;4.70;99.90;;;;;;5078267;28;20568;-78
2021/04/11 07:34:36;;;;;;;9.43;8.23;;;4.70;99.90;;;;;;5077559;28;20664;-77
2021/04/11 07:37:14;;;;;;;8.87;6.70;;;4.70;99.90;;;;;;5079748;28;20207;-76
2021/04/11 07:39:53;;;;;;;7.07;6.43;;;4.80;99.90;;;;;;5078716;28;20198;-76
2021/04/11 07:43:00;;;;;;;7.80;6.43;;;4.80;99.90;;;;;;5078669;28;20211;-77
2021/04/11 07:45:36;;;;;;;9.40;5.80;;;4.80;99.90;;;;;;5004040;28;20239;-76
2021/04/11 07:48:42;;;;;;;5.73;5.10;;;4.80;99.90;;;;;;5072082;28;20215;-77
2021/04/11 07:51:43;;;;;;;6.13;4.20;;;4.70;99.90;;;;;;5072303;28;20617;-78
2021/04/11 07:54:43;;;;;;;8.90;4.83;;;4.70;99.90;;;;;;5079103;28;20210;-76
2021/04/11 07:57:38;;;;;;;4.80;4.40;;;4.70;99.90;;;;;;5068114;28;20229;-76
2021/04/11 08:00:20;;;;;;;5.87;3.83;;;4.90;99.90;;;;;;5058510;28;20208;-77
2021/04/11 08:03:17;;;;;;;8.13;4.20;;;5.10;99.90;;;;;;5079232;28;20215;-76
2021/04/11 08:06:03;;;;;;;5.87;3.63;;;5.00;99.90;;;;;;5048849;28;20214;-75
2021/04/11 08:08:48;;;;;;;5.33;3.37;;;5.20;99.90;;;;;;5077015;28;20562;-79
2021/04/11 08:11:45;;;;;;;3.47;2.97;;;5.10;99.90;;;;;;5077529;28;20662;-77
2021/04/11 08:14:27;;;;;;;4.03;2.43;;;5.20;99.90;;;;;;5078910;28;20202;-75
2021/04/11 08:17:04;;;;;;;5.67;3.57;;;5.10;99.90;;;;;;5078069;28;20205;-76
2021/04/11 08:19:58;;;;;;;5.33;3.07;;;5.10;99.90;;;;;;5078621;28;20203;-76
2021/04/11 08:22:57;;;;;;;5.83;2.87;;;5.00;99.90;;;;;;5076776;28;20260;-75
2021/04/11 08:25:32;;;;;;;6.83;3.70;;;5.10;99.90;;;;;;5077187;28;20210;-75
2021/04/11 08:28:44;;;;;;;5.50;3.53;;;5.20;99.90;;;;;;5076822;28;20194;-75
2021/04/11 08:31:48;;;;;;;4.83;3.33;;;5.30;99.90;;;;;;5078793;28;20195;-76
2021/04/11 08:34:51;;;;;;;4.83;2.90;;;5.50;99.90;;;;;;5077933;28;20250;-76
2021/04/11 08:37:44;;;;;;;5.77;4.50;;;5.50;99.90;;;;;;5020366;28;20702;-76
2021/04/11 08:40:17;;;;;;;7.93;2.93;;;5.50;99.90;;;;;;5076754;28;20206;-77
2021/04/11 08:43:21;;;;;;;3.67;2.70;;;5.50;99.90;;;;;;5077338;28;20211;-78
2021/04/11 08:46:02;;;;;;;4.67;2.90;;;5.60;99.90;;;;;;5071225;28;20205;-76
2021/04/11 08:48:46;;;;;;;3.40;2.70;;;5.80;99.90;;;;;;5078400;28;20201;-76
2021/04/11 08:51:20;;;;;;;5.60;3.00;;;5.70;99.90;;;;;;5077439;28;20250;-75
2021/04/11 08:53:58;;;;;;;6.80;2.80;;;5.90;99.90;;;;;;5077600;28;20206;-76
2021/04/11 08:56:33;;;;;;;3.90;2.77;;;5.90;99.90;;;;;;5077222;28;20678;-76
2021/04/11 08:59:05;;;;;;;4.90;2.50;;;5.90;99.90;;;;;;5076902;28;21007;-77
2021/04/11 09:01:46;;;;;;;4.23;2.53;;;5.90;99.90;;;;;;5084841;28;20566;-75
2021/04/11 09:04:19;;;;;;;3.50;2.30;;;5.90;99.90;;;;;;5081323;28;20199;-76
2021/04/11 09:07:08;;;;;;;4.63;2.73;;;5.70;99.90;;;;;;5085665;28;20666;-76
2021/04/11 09:09:50;;;;;;;4.07;2.60;;;5.70;99.90;;;;;;5071310;28;20191;-75
2021/04/11 09:12:25;;;;;;;4.47;2.73;;;5.90;99.90;;;;;;5086460;28;20194;-75
2021/04/11 09:15:02;;;;;;;3.00;2.53;;;6.30;99.90;;;;;;5071867;28;20206;-76
2021/04/11 09:17:47;;;;;;;4.00;2.03;;;6.40;99.90;;;;;;5083733;28;20680;-75
2021/04/11 09:20:18;;;;;;;4.00;2.43;;;6.50;99.90;;;;;;5082047;28;20669;-75
2021/04/11 09:23:04;;;;;;;4.33;1.93;;;6.60;99.90;;;;;;5091666;28;20210;-77
2021/04/11 09:25:33;;;;;;;2.70;2.00;;;6.40;99.90;;;;;;5073694;28;20236;-75
2021/04/11 09:28:16;;;;;;;2.57;1.90;;;6.70;99.90;;;;;;5074262;28;20222;-75
2021/04/11 09:31:20;;;;;;;3.57;1.80;;;6.70;99.90;;;;;;5071879;28;20285;-79
2021/04/11 09:34:15;;;;;;;2.80;1.70;;;6.60;99.90;;;;;;5076298;28;20680;-76
2021/04/11 09:36:53;;;;;;;6.70;1.80;;;6.80;99.90;;;;;;5079049;28;20213;-75
2021/04/11 09:39:30;;;;;;;3.10;2.17;;;7.30;99.90;;;;;;5081386;28;20202;-76
2021/04/11 09:42:29;;;;;;;1.90;1.50;;;7.40;99.90;;;;;;5080757;28;20191;-76
2021/04/11 09:45:06;;;;;;;2.70;2.00;;;7.20;99.90;;;;;;5081773;28;20211;-76
2021/04/11 09:48:23;;;;;;;3.80;2.00;;;7.00;99.90;;;;;;5080510;28;20209;-76
2021/04/11 09:50:58;;;;;;;3.30;2.00;;;6.90;99.90;;;;;;5034708;28;20214;-77
2021/04/11 09:53:46;;;;;;;1.80;1.70;;;6.80;99.90;;;;;;5081040;28;20742;-76
2021/04/11 09:56:22;;;;;;;3.20;1.70;;;7.00;99.90;;;;;;5081993;28;20209;-78
2021/04/11 09:59:06;;;;;;;4.70;1.80;;;6.80;99.90;;;;;;5080652;28;20194;-75
2021/04/11 10:01:41;;;;;;;2.97;1.90;;;6.90;99.90;;;;;;5081067;28;20191;-75
2021/04/11 10:04:27;;;;;;;2.20;1.73;;;6.70;99.90;;;;;;5081361;28;20214;-75
2021/04/11 10:07:12;;;;;;;4.37;2.03;;;6.80;99.90;;;;;;5080204;28;20209;-76
2021/04/11 10:09:53;;;;;;;5.10;1.90;;;6.90;99.90;;;;;;5080070;28;20190;-75
2021/04/11 10:12:44;;;;;;;8.40;3.97;;;7.00;99.90;;;;;;5080996;28;20209;-75
2021/04/11 10:15:18;;;;;;;4.47;2.40;;;7.20;99.90;;;;;;5081638;28;20205;-76
2021/04/11 10:18:09;;;;;;;9.47;2.80;;;7.00;99.90;;;;;;5082407;28;20190;-76
2021/04/11 10:20:39;;;;;;;3.77;1.67;;;7.00;99.90;;;;;;5036415;28;20217;-80
2021/04/11 10:23:17;;;;;;;4.90;2.10;;;6.80;99.90;;;;;;5081857;28;20723;-77
2021/04/11 10:25:49;;;;;;;3.70;2.87;;;6.80;99.90;;;;;;5080748;28;20201;-76
2021/04/11 10:28:21;;;;;;;4.57;2.00;;;6.90;99.90;;;;;;5081206;28;20272;-80
2021/04/11 10:30:54;;;;;;;4.27;2.10;;;7.00;99.90;;;;;;5080735;28;20653;-78
2021/04/11 10:33:32;;;;;;;5.07;2.47;;;6.90;99.90;;;;;;5080737;28;20202;-77
2021/04/11 10:36:04;;;;;;;4.80;2.33;;;6.70;99.90;;;;;;5080428;28;20239;-75
2021/04/11 10:38:37;;;;;;;2.70;2.03;;;6.80;99.90;;;;;;5080361;28;20650;-80
2021/04/11 10:41:33;;;;;;;8.57;2.10;;;6.70;99.90;;;;;;5081190;28;20546;-78
2021/04/11 10:44:22;;;;;;;3.93;2.10;;;6.60;99.90;;;;;;5078428;28;20654;-77
2021/04/11 10:47:02;;;;;;;4.73;1.93;;;6.50;99.90;;;;;;5084561;28;20209;-76
2021/04/11 10:49:41;;;;;;;3.90;2.30;;;6.40;99.90;;;;;;5079691;28;20199;-78
2021/04/11 10:52:22;;;;;;;4.67;2.10;;;6.40;99.90;;;;;;5093651;28;20208;-77
2021/04/11 10:55:43;;;;;;;4.00;2.40;;;6.30;99.90;;;;;;5075019;28;20213;-77
2021/04/11 10:58:33;;;;;;;3.87;2.23;;;6.30;99.90;;;;;;5067538;28;20190;-79
2021/04/11 11:01:11;;;;;;;3.67;2.53;;;6.30;99.90;;;;;;5079890;28;20207;-74
2021/04/11 11:04:07;;;;;;;4.73;2.60;;;6.30;99.90;;;;;;5078810;28;20206;-75
2021/04/11 11:06:53;;;;;;;4.40;2.03;;;6.40;99.90;;;;;;5079795;28;20726;-77
2021/04/11 11:09:26;;;;;;;6.83;2.80;;;6.50;99.90;;;;;;5075068;28;20212;-77
2021/04/11 11:12:26;;;;;;;4.13;2.17;;;6.50;99.90;;;;;;5079095;28;20294;-77
2021/04/11 11:15:22;;;;;;;6.17;2.60;;;6.50;99.90;;;;;;5078742;28;20199;-77
2021/04/11 11:18:16;;;;;;;4.13;3.07;;;6.80;99.90;;;;;;5078888;28;20198;-81
2021/04/11 11:20:55;;;;;;;5.33;2.50;;;7.10;99.90;;;;;;5078255;28;20633;-77
2021/04/11 11:23:48;;;;;;;8.43;3.77;;;7.40;99.90;;;;;;5079412;28;20585;-75
2021/04/11 11:26:42;;;;;;;7.73;2.40;;;7.70;99.90;;;;;;5079536;28;20206;-77
2021/04/11 11:29:51;;;;;;;5.03;2.10;;;7.80;99.90;;;;;;5078652;28;20211;-77
2021/04/11 11:32:25;;;;;;;4.17;1.97;;;7.80;99.90;;;;;;5078584;28;20610;-77
2021/04/11 11:34:56;;;;;;;2.87;2.10;;;7.70;99.90;;;;;;5079131;28;20608;-77
2021/04/11 11:37:55;;;;;;;4.83;2.03;;;7.60;99.90;;;;;;5079341;28;20206;-78
2021/04/11 11:40:32;;;;;;;3.73;2.10;;;7.80;99.90;;;;;;5078457;28;20337;-77
2021/04/11 11:43:10;;;;;;;5.27;1.57;;;8.00;99.90;;;;;;5084502;28;20206;-77
2021/04/11 11:45:42;;;;;;;6.67;2.00;;;8.00;99.90;;;;;;5071894;28;20654;-78
2021/04/11 11:48:37;;;;;;;3.77;2.37;;;7.80;99.90;;;;;;5071592;28;20277;-77
2021/04/11 11:51:10;;;;;;;4.50;2.07;;;7.80;99.90;;;;;;5071676;28;20195;-78
2021/04/11 11:53:41;;;;;;;5.03;1.93;;;7.90;99.90;;;;;;5071411;28;20195;-77
2021/04/11 11:56:19;;;;;;;4.83;2.20;;;7.80;99.90;;;;;;5071638;28;20201;-77
2021/04/11 11:58:51;;;;;;;4.70;2.70;;;7.80;99.90;;;;;;5071482;28;20285;-79
2021/04/11 12:01:27;;;;;;;3.57;2.23;;;7.80;99.90;;;;;;5071228;28;20720;-75
2021/04/11 12:04:25;;;;;;;4.13;1.80;;;8.10;99.90;;;;;;5073106;28;20263;-77
2021/04/11 12:06:55;;;;;;;3.57;1.80;;;8.10;99.90;;;;;;5072551;28;20544;-76
2021/04/11 12:09:26;;;;;;;4.23;1.50;;;8.20;99.90;;;;;;5072271;28;20201;-77
2021/04/11 12:12:02;;;;;;;2.93;1.60;;;8.40;99.90;;;;;;5086152;28;20667;-74
2021/04/11 12:14:36;;;;;;;4.90;2.07;;;8.50;99.90;;;;;;5072993;28;20277;-75
2021/04/11 12:17:11;;;;;;;3.93;1.53;;;8.50;99.90;;;;;;5073321;28;20195;-75
2021/04/11 12:19:45;;;;;;;5.03;2.20;;;8.80;99.90;;;;;;5073037;28;20576;-75
2021/04/11 12:22:19;;;;;;;8.67;2.20;;;8.80;99.90;;;;;;5073207;28;20321;-76
2021/04/11 12:24:53;;;;;;;2.93;1.60;;;8.80;99.90;;;;;;5072875;28;20297;-75
2021/04/11 12:27:28;;;;;;;6.40;2.20;;;9.10;99.90;;;;;;5073188;28;20259;-78
2021/04/11 12:29:55;;;;;;;4.67;2.20;;;9.40;99.90;;;;;;5072910;28;20559;-78
2021/04/11 12:32:31;;;;;;;5.43;3.00;;;9.80;99.90;;;;;;5073139;28;20202;-76
2021/04/11 12:35:08;;;;;;;4.73;2.30;;;9.80;99.90;;;;;;5072798;28;20251;-77
2021/04/11 12:37:41;;;;;;;3.23;2.07;;;9.30;99.90;;;;;;5072565;28;20292;-77
2021/04/11 12:40:20;;;;;;;5.03;2.60;;;9.00;99.90;;;;;;5072973;28;20205;-77
2021/04/11 12:42:53;;;;;;;6.30;2.93;;;8.70;99.90;;;;;;5073799;28;20214;-78
2021/04/11 12:45:27;;;;;;;5.80;2.80;;;8.50;99.90;;;;;;5073094;28;20263;-77
2021/04/11 12:48:04;;;;;;;5.73;3.33;;;8.40;99.90;;;;;;5072620;28;20231;-77
2021/04/11 12:50:33;;;;;;;5.30;2.93;;;8.40;99.90;;;;;;5072690;28;20190;-77
2021/04/11 12:53:17;;;;;;;4.63;2.60;;;8.30;99.90;;;;;;5087058;28;20212;-78
2021/04/11 12:55:50;;;;;;;6.53;2.67;;;8.30;99.90;;;;;;5072666;28;20194;-78
2021/04/11 12:58:27;;;;;;;7.93;2.40;;;8.10;99.90;;;;;;5072507;28;20662;-77
2021/04/11 13:00:59;;;;;;;4.83;2.70;;;7.90;99.90;;;;;;5072981;28;20286;-77
2021/04/11 13:03:29;;;;;;;8.80;2.60;;;8.20;99.90;;;;;;5072167;28;20211;-78
2021/04/11 13:06:07;;;;;;;5.83;2.37;;;8.30;99.90;;;;;;5072560;28;20218;-77
2021/04/11 13:08:40;;;;;;;5.30;2.70;;;8.50;99.90;;;;;;5072427;28;20191;-77
2021/04/11 13:11:14;;;;;;;5.30;2.13;;;8.70;99.90;;;;;;5079275;28;20196;-77
2021/04/11 13:13:44;;;;;;;5.77;2.30;;;8.90;99.90;;;;;;5082315;28;20200;-77
2021/04/11 13:16:17;;;;;;;4.43;2.30;;;8.70;99.90;;;;;;5076091;28;20236;-77
2021/04/11 13:18:48;;;;;;;4.50;2.27;;;8.50;99.90;;;;;;5076290;28;20649;-77
2021/04/11 13:21:22;;;;;;;4.50;2.43;;;8.50;99.90;;;;;;5076643;28;20201;-77
2021/04/11 13:23:54;;;;;;;5.30;2.10;;;8.30;99.90;;;;;;5076125;28;20217;-78
2021/04/11 13:26:26;;;;;;;2.97;1.97;;;8.40;99.90;;;;;;5082575;28;20197;-78
2021/04/11 13:29:05;;;;;;;4.90;1.93;;;8.30;99.90;;;;;;5083545;28;20210;-76
2021/04/11 13:31:42;;;;;;;3.60;1.90;;;8.40;99.90;;;;;;5076120;28;20197;-76
2021/04/11 13:34:17;;;;;;;2.93;1.67;;;8.80;99.90;;;;;;5075950;28;20199;-77
2021/04/11 13:36:47;;;;;;;4.43;1.73;;;9.20;99.90;;;;;;5076213;28;20625;-76